Time,TemperatureF,DewpointF,PressureIn,WindDirection,WindDirectionDegrees,WindSpeedMPH,WindSpeedGustMPH,Humidity,HourlyPrecipIn,Conditions,Clouds,dailyrainin,SoftwareType,DateUTC
2013-01-13 00:03:00,30.7,25.3,30.18,NE,45,0.0,0.0,80,0.00,,---,0.00,VWS V14.01,2013-01-13 08:03:00,
2013-01-13 00:08:00,30.7,25.3,30.15,West,270,0.0,0.0,80,0.00,,---,0.00,VWS V14.01,2013-01-13 08:08:00,
2013-01-13 00:13:00,30.6,25.1,30.15,NW,315,1.3,2.2,80,0.00,,---,0.00,VWS V14.01,2013-01-13 08:13:00,
2013-01-13 00:18:00,30.4,25.0,30.15,ENE,68,1.6,1.6,80,0.00,,---,0.00,VWS V14.01,2013-01-13 08:18:00,
2013-01-13 00:23:00,30.4,25.0,30.15,ENE,68,1.3,2.0,80,0.00,,---,0.00,VWS V14.01,2013-01-13 08:23:00,
2013-01-13 00:28:00,30.0,24.6,30.15,NNE,22,0.0,1.1,80,0.00,,---,0.00,VWS V14.01,2013-01-13 08:28:00,
2013-01-13 00:33:00,29.8,24.4,30.15,West,270,0.0,0.9,80,0.00,,---,0.00,VWS V14.01,2013-01-13 08:33:00,
2013-01-13 00:38:00,29.8,24.4,30.15,ENE,68,3.1,3.1,80,0.00,,---,0.00,VWS V14.01,2013-01-13 08:38:00,
2013-01-13 00:43:00,29.7,24.6,30.15,North,0,0.0,0.0,81,0.00,,---,0.00,VWS V14.01,2013-01-13 08:43:00,
2013-01-13 00:48:00,29.7,24.6,30.15,ENE,68,0.0,0.9,81,0.00,,---,0.00,VWS V14.01,2013-01-13 08:48:00,
2013-01-13 00:53:00,29.7,24.6,30.15,SE,135,1.6,1.6,81,0.00,,---,0.00,VWS V14.01,2013-01-13 08:53:00,
2013-01-13 00:58:00,29.7,24.6,30.15,SE,135,0.0,0.0,81,0.00,,---,0.00,VWS V14.01,2013-01-13 08:58:00,
2013-01-13 01:03:00,29.7,24.6,30.15,SW,225,0.0,0.0,81,0.00,,---,0.00,VWS V14.01,2013-01-13 09:03:00,
2013-01-13 01:08:00,29.7,24.6,30.15,SSE,158,0.0,0.0,81,0.00,,---,0.00,VWS V14.01,2013-01-13 09:08:00,
2013-01-13 01:13:00,29.7,24.6,30.15,South,180,0.0,0.0,81,0.00,,---,0.00,VWS V14.01,2013-01-13 09:13:00,
2013-01-13 01:18:00,29.7,24.6,30.15,NNE,22,0.0,2.2,81,0.00,,---,0.00,VWS V14.01,2013-01-13 09:18:00,
2013-01-13 01:23:00,29.7,24.6,30.18,ESE,112,3.1,3.1,81,0.00,,---,0.00,VWS V14.01,2013-01-13 09:23:00,
2013-01-13 01:28:00,29.7,24.6,30.18,SE,135,2.2,3.4,81,0.00,,---,0.00,VWS V14.01,2013-01-13 09:28:00,
2013-01-13 01:33:00,29.7,24.6,30.18,SW,225,0.0,3.1,81,0.00,,---,0.00,VWS V14.01,2013-01-13 09:33:00,
2013-01-13 01:38:00,29.7,24.6,30.18,ESE,112,3.6,3.6,81,0.00,,---,0.00,VWS V14.01,2013-01-13 09:38:00,
2013-01-13 01:43:00,29.7,24.6,30.18,SE,135,0.0,2.2,81,0.00,,---,0.00,VWS V14.01,2013-01-13 09:43:00,
2013-01-13 01:48:00,29.7,24.6,30.18,SE,135,2.2,2.5,81,0.00,,---,0.00,VWS V14.01,2013-01-13 09:48:00,
2013-01-13 01:53:00,29.7,24.6,30.18,West,270,0.0,0.0,81,0.00,,---,0.00,VWS V14.01,2013-01-13 09:53:00,
2013-01-13 01:58:00,29.7,24.6,30.18,NNE,22,0.0,0.0,81,0.00,,---,0.00,VWS V14.01,2013-01-13 09:58:00,
2013-01-13 02:03:00,29.7,24.6,30.18,SSE,158,1.6,1.6,81,0.00,,---,0.00,VWS V14.01,2013-01-13 10:03:00,
2013-01-13 02:08:00,29.7,24.6,30.18,NNW,338,0.0,0.0,81,0.00,,---,0.00,VWS V14.01,2013-01-13 10:08:00,
2013-01-13 02:13:00,29.7,24.6,30.18,East,90,2.7,3.6,81,0.00,,---,0.00,VWS V14.01,2013-01-13 10:13:00,
2013-01-13 02:18:00,29.7,24.6,30.18,ESE,112,1.6,2.7,81,0.00,,---,0.00,VWS V14.01,2013-01-13 10:18:00,
2013-01-13 02:23:00,29.7,24.6,30.18,West,270,2.5,2.9,81,0.00,,---,0.00,VWS V14.01,2013-01-13 10:23:00,
2013-01-13 02:28:00,29.7,24.6,30.18,NNE,22,1.1,1.1,81,0.00,,---,0.00,VWS V14.01,2013-01-13 10:28:00,
2013-01-13 02:33:00,29.7,24.6,30.18,NNE,22,0.0,0.0,81,0.00,,---,0.00,VWS V14.01,2013-01-13 10:33:00,
2013-01-13 02:38:00,29.7,24.6,30.18,NNW,338,0.0,0.0,81,0.00,,---,0.00,VWS V14.01,2013-01-13 10:38:00,
2013-01-13 02:44:00,29.7,24.6,30.18,East,90,0.0,0.0,81,0.00,,---,0.00,VWS V14.01,2013-01-13 10:44:00,
2013-01-13 02:49:00,29.7,24.6,30.18,South,180,0.0,1.1,81,0.00,,---,0.00,VWS V14.01,2013-01-13 10:49:00,
2013-01-13 02:54:00,29.7,24.6,30.18,South,180,0.0,0.0,81,0.00,,---,0.00,VWS V14.01,2013-01-13 10:54:00,
2013-01-13 02:59:00,29.7,24.6,30.18,South,180,0.0,0.0,81,0.00,,---,0.00,VWS V14.01,2013-01-13 10:59:00,
2013-01-13 03:04:00,29.7,24.6,30.18,SSE,158,0.0,0.0,81,0.00,,---,0.00,VWS V14.01,2013-01-13 11:04:00,
2013-01-13 03:09:00,29.7,24.6,30.18,SE,135,2.2,2.9,81,0.00,,---,0.00,VWS V14.01,2013-01-13 11:09:00,
2013-01-13 03:14:00,29.7,24.6,30.18,SE,135,2.0,2.0,81,0.00,,---,0.00,VWS V14.01,2013-01-13 11:14:00,
2013-01-13 03:19:00,29.7,24.6,30.18,SE,135,2.0,2.0,81,0.00,,---,0.00,VWS V14.01,2013-01-13 11:19:00,
2013-01-13 03:24:00,29.7,24.6,30.18,SSW,202,0.0,0.0,81,0.00,,---,0.00,VWS V14.01,2013-01-13 11:24:00,
2013-01-13 03:29:00,29.7,24.6,30.18,ENE,68,0.0,0.9,81,0.00,,---,0.00,VWS V14.01,2013-01-13 11:29:00,
2013-01-13 03:34:00,29.7,24.6,30.18,NNE,22,0.0,1.6,81,0.00,,---,0.00,VWS V14.01,2013-01-13 11:34:00,
2013-01-13 03:39:00,29.7,24.6,30.18,NE,45,0.0,2.5,81,0.00,,---,0.00,VWS V14.01,2013-01-13 11:39:00,
2013-01-13 03:44:00,29.7,24.6,30.18,North,0,1.3,2.0,81,0.00,,---,0.00,VWS V14.01,2013-01-13 11:44:00,
2013-01-13 03:49:00,29.7,24.6,30.18,NNE,22,0.0,1.1,81,0.00,,---,0.00,VWS V14.01,2013-01-13 11:49:00,
2013-01-13 03:54:00,29.7,24.6,30.18,ESE,112,0.0,0.0,81,0.00,,---,0.00,VWS V14.01,2013-01-13 11:54:00,
2013-01-13 03:59:00,29.7,24.6,30.18,ESE,112,0.0,0.0,81,0.00,,---,0.00,VWS V14.01,2013-01-13 11:59:00,
2013-01-13 04:04:00,29.7,24.6,30.18,South,180,0.0,0.0,81,0.00,,---,0.00,VWS V14.01,2013-01-13 12:04:00,
2013-01-13 04:09:00,29.7,24.6,30.18,East,90,0.0,0.0,81,0.00,,---,0.00,VWS V14.01,2013-01-13 12:09:00,
2013-01-13 04:14:00,29.7,24.6,30.18,SE,135,0.0,1.6,81,0.00,,---,0.00,VWS V14.01,2013-01-13 12:14:00,
2013-01-13 04:19:00,29.7,24.6,30.18,SE,135,0.0,0.9,81,0.00,,---,0.00,VWS V14.01,2013-01-13 12:19:00,
2013-01-13 04:24:00,29.7,24.6,30.15,East,90,2.2,2.2,81,0.00,,---,0.00,VWS V14.01,2013-01-13 12:24:00,
2013-01-13 04:29:00,29.7,24.6,30.15,ESE,112,2.2,2.9,81,0.00,,---,0.00,VWS V14.01,2013-01-13 12:29:00,
2013-01-13 04:34:00,29.7,24.6,30.15,ESE,112,0.0,1.1,81,0.00,,---,0.00,VWS V14.01,2013-01-13 12:34:00,
2013-01-13 04:39:00,29.7,24.6,30.15,NW,315,0.0,0.0,81,0.00,,---,0.00,VWS V14.01,2013-01-13 12:39:00,
2013-01-13 04:44:00,29.7,24.6,30.15,NW,315,0.0,0.0,81,0.00,,---,0.00,VWS V14.01,2013-01-13 12:44:00,
2013-01-13 04:49:00,29.7,24.6,30.15,NE,45,0.0,0.0,81,0.00,,---,0.00,VWS V14.01,2013-01-13 12:49:00,
2013-01-13 04:54:00,29.7,24.6,30.15,NNW,338,0.0,0.0,81,0.00,,---,0.00,VWS V14.01,2013-01-13 12:54:00,
2013-01-13 04:59:00,29.7,24.6,30.15,NNW,338,0.0,0.0,81,0.00,,---,0.00,VWS V14.01,2013-01-13 12:59:00,
2013-01-13 05:04:00,26.8,22.6,30.15,NNE,22,0.0,0.0,84,0.00,,---,0.00,VWS V14.01,2013-01-13 13:04:00,
2013-01-13 05:09:00,26.8,22.6,30.18,NE,45,0.0,0.0,84,0.00,,---,0.00,VWS V14.01,2013-01-13 13:09:00,
2013-01-13 05:14:00,26.8,22.6,30.18,East,90,0.0,0.0,84,0.00,,---,0.00,VWS V14.01,2013-01-13 13:14:00,
2013-01-13 05:19:00,26.8,22.6,30.18,SSE,158,0.0,0.0,84,0.00,,---,0.00,VWS V14.01,2013-01-13 13:19:00,
2013-01-13 05:24:00,26.8,22.6,30.18,SSE,158,0.0,0.0,84,0.00,,---,0.00,VWS V14.01,2013-01-13 13:24:00,
2013-01-13 05:29:00,26.8,22.6,30.18,SE,135,0.0,0.0,84,0.00,,---,0.00,VWS V14.01,2013-01-13 13:29:00,
2013-01-13 05:34:00,26.8,22.6,30.18,SE,135,0.0,0.0,84,0.00,,---,0.00,VWS V14.01,2013-01-13 13:34:00,
2013-01-13 05:39:00,26.8,22.6,30.18,North,0,0.0,0.0,84,0.00,,---,0.00,VWS V14.01,2013-01-13 13:39:00,
2013-01-13 05:44:00,26.8,22.6,30.18,NNW,338,0.0,0.0,84,0.00,,---,0.00,VWS V14.01,2013-01-13 13:44:00,
2013-01-13 05:49:00,26.8,22.6,30.18,NW,315,2.5,2.5,84,0.00,,---,0.00,VWS V14.01,2013-01-13 13:49:00,
2013-01-13 05:54:00,26.8,22.6,30.18,NW,315,0.0,0.0,84,0.00,,---,0.00,VWS V14.01,2013-01-13 13:54:00,
2013-01-13 05:59:00,26.8,22.6,30.18,West,270,0.0,0.0,84,0.00,,---,0.00,VWS V14.01,2013-01-13 13:59:00,
2013-01-13 06:04:00,26.8,22.6,30.18,West,270,0.0,0.0,84,0.00,,---,0.00,VWS V14.01,2013-01-13 14:04:00,
2013-01-13 06:09:00,26.4,22.5,30.18,SE,135,0.0,0.0,85,0.00,,---,0.00,VWS V14.01,2013-01-13 14:09:00,
2013-01-13 06:14:00,26.2,22.4,30.18,SE,135,0.0,0.0,85,0.00,,---,0.00,VWS V14.01,2013-01-13 14:14:00,
2013-01-13 06:19:00,26.2,22.4,30.18,ESE,112,0.0,0.0,85,0.00,,---,0.00,VWS V14.01,2013-01-13 14:19:00,
2013-01-13 06:24:00,26.2,22.4,30.18,ENE,68,0.0,0.0,85,0.00,,---,0.00,VWS V14.01,2013-01-13 14:24:00,
2013-01-13 06:29:00,26.1,22.2,30.18,SSW,202,0.0,0.0,85,0.00,,---,0.00,VWS V14.01,2013-01-13 14:29:00,
2013-01-13 06:34:00,26.2,22.4,30.18,ESE,112,0.0,1.3,85,0.00,,---,0.00,VWS V14.01,2013-01-13 14:34:00,
2013-01-13 06:40:00,26.2,22.4,30.18,SE,135,0.0,0.0,85,0.00,,---,0.00,VWS V14.01,2013-01-13 14:40:00,
2013-01-13 06:45:00,26.2,22.4,30.18,ENE,68,0.0,0.0,85,0.00,,---,0.00,VWS V14.01,2013-01-13 14:45:00,
2013-01-13 06:50:00,26.1,22.2,30.18,East,90,0.0,0.0,85,0.00,,---,0.00,VWS V14.01,2013-01-13 14:50:00,
2013-01-13 06:55:00,26.1,22.2,30.18,ENE,68,0.0,0.0,85,0.00,,---,0.00,VWS V14.01,2013-01-13 14:55:00,
2013-01-13 07:00:00,26.1,22.2,30.18,NW,315,0.0,0.0,85,0.00,,---,0.00,VWS V14.01,2013-01-13 15:00:00,
2013-01-13 07:05:00,26.1,22.2,30.18,NW,315,0.0,0.0,85,0.00,,---,0.00,VWS V14.01,2013-01-13 15:05:00,
2013-01-13 07:10:00,26.1,22.2,30.21,NE,45,0.0,0.0,85,0.00,,---,0.00,VWS V14.01,2013-01-13 15:10:00,
2013-01-13 07:15:00,26.1,22.2,30.21,NNE,22,0.0,0.0,85,0.00,,---,0.00,VWS V14.01,2013-01-13 15:15:00,
2013-01-13 07:20:00,26.1,22.2,30.21,NW,315,0.0,0.0,85,0.00,,---,0.00,VWS V14.01,2013-01-13 15:20:00,
2013-01-13 07:25:00,26.1,22.2,30.21,East,90,0.0,0.0,85,0.00,,---,0.00,VWS V14.01,2013-01-13 15:25:00,
2013-01-13 07:30:00,26.1,22.2,30.21,ENE,68,0.0,0.0,85,0.00,,---,0.00,VWS V14.01,2013-01-13 15:30:00,
2013-01-13 07:35:00,26.1,22.2,30.21,North,0,0.0,0.0,85,0.00,,---,0.00,VWS V14.01,2013-01-13 15:35:00,
2013-01-13 07:40:00,26.1,22.2,30.21,NNE,22,0.0,0.0,85,0.00,,---,0.00,VWS V14.01,2013-01-13 15:40:00,
2013-01-13 07:45:00,26.1,22.5,30.21,NNE,22,0.0,0.0,86,0.00,,---,0.00,VWS V14.01,2013-01-13 15:45:00,
2013-01-13 07:50:00,26.1,22.5,30.21,NW,315,0.0,0.0,86,0.00,,---,0.00,VWS V14.01,2013-01-13 15:50:00,
2013-01-13 07:55:00,26.2,22.6,30.21,West,270,0.0,0.0,86,0.00,,---,0.00,VWS V14.01,2013-01-13 15:55:00,
2013-01-13 08:00:00,26.2,22.6,30.21,West,270,0.0,0.0,86,0.00,,---,0.00,VWS V14.01,2013-01-13 16:00:00,
2013-01-13 08:05:00,26.4,22.8,30.21,NNE,22,0.0,0.0,86,0.00,,---,0.00,VWS V14.01,2013-01-13 16:05:00,
2013-01-13 08:10:00,26.4,22.8,30.24,NNE,22,0.0,0.0,86,0.00,,---,0.00,VWS V14.01,2013-01-13 16:10:00,
2013-01-13 08:15:00,26.4,22.8,30.24,West,270,0.0,0.0,86,0.00,,---,0.00,VWS V14.01,2013-01-13 16:15:00,
2013-01-13 08:20:00,26.6,23.0,30.24,South,180,0.0,0.0,86,0.00,,---,0.00,VWS V14.01,2013-01-13 16:20:00,
2013-01-13 08:25:00,26.8,23.2,30.24,South,180,0.0,0.0,86,0.00,,---,0.00,VWS V14.01,2013-01-13 16:25:00,
2013-01-13 08:30:00,26.8,23.2,30.24,South,180,0.0,0.0,86,0.00,,---,0.00,VWS V14.01,2013-01-13 16:30:00,
2013-01-13 08:35:00,27.0,23.3,30.24,ESE,112,2.2,2.2,86,0.00,,---,0.00,VWS V14.01,2013-01-13 16:35:00,
2013-01-13 08:40:00,27.1,23.5,30.24,SSE,158,0.0,1.1,86,0.00,,---,0.00,VWS V14.01,2013-01-13 16:40:00,
2013-01-13 08:45:00,27.3,23.7,30.24,NNW,338,0.0,0.0,86,0.00,,---,0.00,VWS V14.01,2013-01-13 16:45:00,
2013-01-13 08:50:00,27.5,23.9,30.24,NW,315,0.0,0.0,86,0.00,,---,0.00,VWS V14.01,2013-01-13 16:50:00,
2013-01-13 08:55:00,27.9,24.2,30.24,WNW,292,0.0,0.0,86,0.00,,---,0.00,VWS V14.01,2013-01-13 16:55:00,
2013-01-13 09:00:00,28.0,24.4,30.24,NW,315,0.0,0.0,86,0.00,,---,0.00,VWS V14.01,2013-01-13 17:00:00,
2013-01-13 09:05:00,28.2,24.6,30.24,West,270,0.0,0.0,86,0.00,,---,0.00,VWS V14.01,2013-01-13 17:05:00,
2013-01-13 09:10:00,28.6,24.9,30.24,WNW,292,0.0,0.0,86,0.00,,---,0.00,VWS V14.01,2013-01-13 17:10:00,
2013-01-13 09:15:00,28.9,25.3,30.24,NW,315,0.0,0.0,86,0.00,,---,0.00,VWS V14.01,2013-01-13 17:15:00,
2013-01-13 09:20:00,29.1,25.5,30.24,NW,315,0.0,0.0,86,0.00,,---,0.00,VWS V14.01,2013-01-13 17:20:00,
2013-01-13 09:25:00,29.3,25.6,30.24,WNW,292,0.0,0.0,86,0.00,,---,0.00,VWS V14.01,2013-01-13 17:25:00,
2013-01-13 09:30:00,29.7,26.0,30.24,NNW,338,0.0,0.0,86,0.00,,---,0.00,VWS V14.01,2013-01-13 17:30:00,
2013-01-13 09:36:00,30.2,26.5,30.24,NW,315,2.9,2.9,86,0.00,,---,0.00,VWS V14.01,2013-01-13 17:36:00,
2013-01-13 09:41:00,31.1,27.1,30.24,NW,315,2.5,2.9,85,0.00,,---,0.00,VWS V14.01,2013-01-13 17:41:00,
2013-01-13 09:46:00,31.6,27.7,30.24,WNW,292,1.3,2.2,85,0.00,,---,0.00,VWS V14.01,2013-01-13 17:46:00,
2013-01-13 09:51:00,31.8,27.5,30.24,NW,315,1.3,2.7,84,0.00,,---,0.00,VWS V14.01,2013-01-13 17:51:00,
2013-01-13 09:56:00,32.0,27.7,30.24,West,270,1.3,1.6,84,0.00,,---,0.00,VWS V14.01,2013-01-13 17:56:00,
2013-01-13 10:01:00,32.2,27.9,30.24,NW,315,1.3,1.3,84,0.00,,---,0.00,VWS V14.01,2013-01-13 18:01:00,
2013-01-13 10:06:00,32.5,28.2,30.24,NW,315,0.0,1.1,84,0.00,,---,0.00,VWS V14.01,2013-01-13 18:06:00,
2013-01-13 10:11:00,33.3,29.0,30.24,NW,315,1.1,1.6,84,0.00,,---,0.00,VWS V14.01,2013-01-13 18:11:00,
2013-01-13 10:16:00,33.6,29.0,30.24,West,270,2.2,3.6,83,0.00,,---,0.00,VWS V14.01,2013-01-13 18:16:00,
2013-01-13 10:21:00,34.0,29.1,30.24,North,0,2.2,2.7,82,0.00,,---,0.00,VWS V14.01,2013-01-13 18:21:00,
2013-01-13 10:26:00,34.3,29.4,30.24,WNW,292,2.0,2.5,82,0.00,,---,0.00,VWS V14.01,2013-01-13 18:26:00,
2013-01-13 10:31:00,34.3,29.1,30.24,North,0,1.3,1.6,81,0.00,,---,0.00,VWS V14.01,2013-01-13 18:31:00,
2013-01-13 10:36:00,34.7,29.8,30.24,NNW,338,2.9,3.4,82,0.00,,---,0.00,VWS V14.01,2013-01-13 18:36:00,
2013-01-13 10:41:00,35.6,29.7,30.24,NW,315,2.7,3.8,79,0.00,,---,0.00,VWS V14.01,2013-01-13 18:41:00,
2013-01-13 10:46:00,36.0,30.1,30.24,NNW,338,2.9,2.9,79,0.00,,---,0.00,VWS V14.01,2013-01-13 18:46:00,
2013-01-13 10:51:00,36.3,30.1,30.24,NW,315,2.5,3.4,78,0.00,,---,0.00,VWS V14.01,2013-01-13 18:51:00,
2013-01-13 10:56:00,36.7,30.5,30.24,NE,45,1.1,2.9,78,0.00,,---,0.00,VWS V14.01,2013-01-13 18:56:00,
2013-01-13 11:01:00,37.2,30.7,30.24,NNE,22,0.9,3.4,77,0.00,,---,0.00,VWS V14.01,2013-01-13 19:01:00,
2013-01-13 11:06:00,37.6,30.7,30.24,WNW,292,1.1,3.4,76,0.00,,---,0.00,VWS V14.01,2013-01-13 19:06:00,
2013-01-13 11:11:00,38.1,30.9,30.24,North,0,1.6,2.5,75,0.00,,---,0.00,VWS V14.01,2013-01-13 19:11:00,
2013-01-13 11:16:00,38.7,31.1,30.24,NNW,338,2.7,2.7,74,0.00,,---,0.00,VWS V14.01,2013-01-13 19:16:00,
2013-01-13 11:21:00,39.2,31.0,30.24,WSW,248,0.0,2.9,72,0.00,,---,0.00,VWS V14.01,2013-01-13 19:21:00,
2013-01-13 11:26:00,39.6,31.6,30.21,South,180,3.6,3.6,73,0.00,,---,0.00,VWS V14.01,2013-01-13 19:26:00,
2013-01-13 11:31:00,39.7,32.1,30.21,West,270,0.0,4.0,74,0.00,,---,0.00,VWS V14.01,2013-01-13 19:31:00,
2013-01-13 11:36:00,40.1,32.5,30.21,NNW,338,0.0,3.4,74,0.00,,---,0.00,VWS V14.01,2013-01-13 19:36:00,
2013-01-13 11:41:00,40.6,32.7,30.21,WNW,292,2.0,2.9,73,0.00,,---,0.00,VWS V14.01,2013-01-13 19:41:00,
2013-01-13 11:46:00,41.2,32.5,30.21,West,270,0.0,2.5,71,0.00,,---,0.00,VWS V14.01,2013-01-13 19:46:00,
2013-01-13 11:51:00,42.1,33.0,30.21,NNW,338,1.3,2.9,70,0.00,,---,0.00,VWS V14.01,2013-01-13 19:51:00,
2013-01-13 11:56:00,42.4,32.3,30.21,NNW,338,2.7,3.4,67,0.00,,---,0.00,VWS V14.01,2013-01-13 19:56:00,
2013-01-13 12:01:00,43.3,30.0,30.21,WNW,292,2.5,3.4,59,0.00,,---,0.00,VWS V14.01,2013-01-13 20:01:00,
2013-01-13 12:06:00,43.5,31.0,30.21,NNE,22,0.0,3.6,61,0.00,,---,0.00,VWS V14.01,2013-01-13 20:06:00,
2013-01-13 12:11:00,43.9,32.1,30.21,NNW,338,2.2,2.7,63,0.00,,---,0.00,VWS V14.01,2013-01-13 20:11:00,
2013-01-13 12:16:00,44.2,33.6,30.21,South,180,0.0,3.1,66,0.00,,---,0.00,VWS V14.01,2013-01-13 20:16:00,
2013-01-13 12:21:00,44.6,30.8,30.18,West,270,0.0,2.7,58,0.00,,---,0.00,VWS V14.01,2013-01-13 20:21:00,
2013-01-13 12:26:00,44.8,32.2,30.18,West,270,0.0,2.9,61,0.00,,---,0.00,VWS V14.01,2013-01-13 20:26:00,
2013-01-13 12:31:00,45.7,31.8,30.18,West,270,0.0,3.1,58,0.00,,---,0.00,VWS V14.01,2013-01-13 20:31:00,
2013-01-13 12:36:00,45.5,33.2,30.18,WNW,292,0.0,2.0,62,0.00,,---,0.00,VWS V14.01,2013-01-13 20:36:00,
2013-01-13 12:41:00,45.9,34.4,30.18,WNW,292,0.0,2.7,64,0.00,,---,0.00,VWS V14.01,2013-01-13 20:41:00,
2013-01-13 12:46:00,46.6,33.9,30.18,NNW,338,1.1,2.0,61,0.00,,---,0.00,VWS V14.01,2013-01-13 20:46:00,
2013-01-13 12:52:00,46.8,34.8,30.18,ESE,112,0.9,2.5,63,0.00,,---,0.00,VWS V14.01,2013-01-13 20:52:00,
2013-01-13 12:57:00,46.9,35.4,30.18,WNW,292,0.9,2.7,64,0.00,,---,0.00,VWS V14.01,2013-01-13 20:57:00,
2013-01-13 13:02:00,47.1,35.6,30.18,West,270,1.3,4.3,64,0.00,,---,0.00,VWS V14.01,2013-01-13 21:02:00,
2013-01-13 13:07:00,47.1,36.0,30.18,SW,225,2.5,2.5,65,0.00,,---,0.00,VWS V14.01,2013-01-13 21:07:00,
2013-01-13 13:12:00,47.5,35.5,30.18,West,270,3.8,3.8,63,0.00,,---,0.00,VWS V14.01,2013-01-13 21:12:00,
2013-01-13 13:17:00,48.0,36.0,30.18,West,270,1.3,6.0,63,0.00,,---,0.00,VWS V14.01,2013-01-13 21:17:00,
2013-01-13 13:22:00,48.2,35.8,30.15,NW,315,3.6,4.0,62,0.00,,---,0.00,VWS V14.01,2013-01-13 21:22:00,
2013-01-13 13:27:00,48.6,33.1,30.15,West,270,4.0,5.4,55,0.00,,---,0.00,VWS V14.01,2013-01-13 21:27:00,
2013-01-13 13:32:00,48.7,35.1,30.15,NW,315,1.6,5.8,59,0.00,,---,0.00,VWS V14.01,2013-01-13 21:32:00,
2013-01-13 13:37:00,48.7,35.1,30.15,East,90,0.0,0.0,59,0.00,,---,0.00,VWS V14.01,2013-01-13 21:37:00,
2013-01-13 13:42:00,48.9,36.1,30.15,WSW,248,6.0,6.5,61,0.00,,---,0.00,VWS V14.01,2013-01-13 21:42:00,
2013-01-13 13:47:00,49.3,35.6,30.15,North,0,2.7,6.0,59,0.00,,---,0.00,VWS V14.01,2013-01-13 21:47:00,
2013-01-13 13:52:00,49.3,34.7,30.15,SW,225,2.9,2.9,57,0.00,,---,0.00,VWS V14.01,2013-01-13 21:52:00,
2013-01-13 13:57:00,49.6,34.2,30.15,NW,315,4.0,4.0,55,0.00,,---,0.00,VWS V14.01,2013-01-13 21:57:00,
2013-01-13 14:02:00,49.8,36.5,30.15,NW,315,4.3,4.3,60,0.00,,---,0.00,VWS V14.01,2013-01-13 22:02:00,
2013-01-13 14:07:00,50.2,35.5,30.15,West,270,0.0,0.0,57,0.00,,---,0.00,VWS V14.01,2013-01-13 22:07:00,
2013-01-13 14:12:00,50.2,36.0,30.15,SW,225,2.9,6.3,58,0.00,,---,0.00,VWS V14.01,2013-01-13 22:12:00,
2013-01-13 14:17:00,50.2,36.4,30.15,East,90,0.0,2.5,59,0.00,,---,0.00,VWS V14.01,2013-01-13 22:17:00,
2013-01-13 14:22:00,50.4,36.2,30.15,NW,315,2.5,2.5,58,0.00,,---,0.00,VWS V14.01,2013-01-13 22:22:00,
2013-01-13 14:27:00,50.4,34.8,30.15,West,270,0.0,0.0,55,0.00,,---,0.00,VWS V14.01,2013-01-13 22:27:00,
2013-01-13 14:32:00,50.7,36.1,30.15,West,270,0.0,0.0,57,0.00,,---,0.00,VWS V14.01,2013-01-13 22:32:00,
2013-01-13 14:37:00,50.9,36.7,30.15,NW,315,1.3,1.3,58,0.00,,---,0.00,VWS V14.01,2013-01-13 22:37:00,
2013-01-13 14:42:00,51.1,36.8,30.15,SW,225,3.1,3.8,58,0.00,,---,0.00,VWS V14.01,2013-01-13 22:42:00,
2013-01-13 14:47:00,51.1,36.4,30.15,NW,315,4.3,4.3,57,0.00,,---,0.00,VWS V14.01,2013-01-13 22:47:00,
2013-01-13 14:52:00,51.3,37.0,30.15,West,270,3.1,3.1,58,0.00,,---,0.00,VWS V14.01,2013-01-13 22:52:00,
2013-01-13 14:57:00,51.3,37.4,30.15,West,270,1.6,5.6,59,0.00,,---,0.00,VWS V14.01,2013-01-13 22:57:00,
2013-01-13 15:02:00,51.8,37.1,30.15,West,270,1.6,1.6,57,0.00,,---,0.00,VWS V14.01,2013-01-13 23:02:00,
2013-01-13 15:07:00,52.3,38.0,30.15,West,270,3.8,3.8,58,0.00,,---,0.00,VWS V14.01,2013-01-13 23:07:00,
2013-01-13 15:12:00,52.0,35.4,30.15,NNW,338,2.7,2.7,53,0.00,,---,0.00,VWS V14.01,2013-01-13 23:12:00,
2013-01-13 15:17:00,52.2,37.0,30.15,West,270,2.5,2.5,56,0.00,,---,0.00,VWS V14.01,2013-01-13 23:17:00,
2013-01-13 15:22:00,51.8,35.2,30.15,WNW,292,2.0,3.8,53,0.00,,---,0.00,VWS V14.01,2013-01-13 23:22:00,
2013-01-13 15:27:00,51.6,36.5,30.15,WNW,292,0.0,0.0,56,0.00,,---,0.00,VWS V14.01,2013-01-13 23:27:00,
2013-01-13 15:32:00,50.9,35.3,30.15,NW,315,5.6,5.6,55,0.00,,---,0.00,VWS V14.01,2013-01-13 23:32:00,
2013-01-13 15:37:00,50.7,36.5,30.15,NNW,338,3.6,3.6,58,0.00,,---,0.00,VWS V14.01,2013-01-13 23:37:00,
2013-01-13 15:42:00,50.0,35.8,30.15,West,270,3.8,3.8,58,0.00,,---,0.00,VWS V14.01,2013-01-13 23:42:00,
2013-01-13 15:47:00,49.6,36.3,30.15,SW,225,3.4,3.4,60,0.00,,---,0.00,VWS V14.01,2013-01-13 23:47:00,
2013-01-13 15:52:00,49.3,35.6,30.15,West,270,2.0,2.7,59,0.00,,---,0.00,VWS V14.01,2013-01-13 23:52:00,
2013-01-13 15:57:00,48.7,35.5,30.15,SW,225,2.7,2.7,60,0.00,,---,0.00,VWS V14.01,2013-01-13 23:57:00,
2013-01-13 16:02:00,48.6,34.9,30.15,West,270,1.6,2.2,59,0.00,,---,0.00,VWS V14.01,2013-01-14 00:02:00,
2013-01-13 16:07:00,48.0,35.6,30.15,West,270,0.0,0.0,62,0.00,,---,0.00,VWS V14.01,2013-01-14 00:07:00,
2013-01-13 16:12:00,47.5,35.9,30.15,NNW,338,0.0,0.0,64,0.00,,---,0.00,VWS V14.01,2013-01-14 00:12:00,
2013-01-13 16:17:00,47.3,36.2,30.15,West,270,2.5,2.9,65,0.00,,---,0.00,VWS V14.01,2013-01-14 00:17:00,
2013-01-13 16:22:00,46.9,36.2,30.15,SW,225,0.0,0.0,66,0.00,,---,0.00,VWS V14.01,2013-01-14 00:22:00,
2013-01-13 16:27:00,46.8,36.0,30.15,West,270,0.0,0.0,66,0.00,,---,0.00,VWS V14.01,2013-01-14 00:27:00,
2013-01-13 16:32:00,46.2,35.9,30.15,South,180,0.9,0.9,67,0.00,,---,0.00,VWS V14.01,2013-01-14 00:32:00,
2013-01-13 16:37:00,46.0,35.7,30.15,West,270,0.0,0.0,67,0.00,,---,0.00,VWS V14.01,2013-01-14 00:37:00,
2013-01-13 16:42:00,45.7,35.4,30.15,West,270,0.0,0.0,67,0.00,,---,0.00,VWS V14.01,2013-01-14 00:42:00,
2013-01-13 16:47:00,45.3,35.0,30.15,SSW,202,0.0,0.0,67,0.00,,---,0.00,VWS V14.01,2013-01-14 00:47:00,
2013-01-13 16:52:00,45.1,35.2,30.15,South,180,0.0,0.0,68,0.00,,---,0.00,VWS V14.01,2013-01-14 00:52:00,
2013-01-13 16:57:00,44.6,34.7,30.15,SSW,202,0.0,0.0,68,0.00,,---,0.00,VWS V14.01,2013-01-14 00:57:00,
2013-01-13 17:02:00,44.2,34.7,30.15,WNW,292,0.0,0.0,69,0.00,,---,0.00,VWS V14.01,2013-01-14 01:02:00,
2013-01-13 17:07:00,43.9,34.7,30.15,ESE,112,0.0,0.0,70,0.00,,---,0.00,VWS V14.01,2013-01-14 01:07:00,
2013-01-13 17:12:00,43.5,34.4,30.15,ESE,112,0.0,0.0,70,0.00,,---,0.00,VWS V14.01,2013-01-14 01:12:00,
2013-01-13 17:17:00,43.2,34.4,30.15,ESE,112,0.0,0.0,71,0.00,,---,0.00,VWS V14.01,2013-01-14 01:17:00,
2013-01-13 17:23:00,43.0,34.2,30.15,ENE,68,0.0,0.0,71,0.00,,---,0.00,VWS V14.01,2013-01-14 01:23:00,
2013-01-13 17:28:00,42.6,34.2,30.15,SE,135,1.6,2.5,72,0.00,,---,0.00,VWS V14.01,2013-01-14 01:28:00,
2013-01-13 17:33:00,42.3,33.9,30.15,ESE,112,0.0,0.0,72,0.00,,---,0.00,VWS V14.01,2013-01-14 01:33:00,
2013-01-13 17:38:00,41.9,33.5,30.15,South,180,1.3,1.3,72,0.00,,---,0.00,VWS V14.01,2013-01-14 01:38:00,
2013-01-13 17:43:00,41.5,32.8,30.15,ESE,112,3.6,3.6,71,0.00,,---,0.00,VWS V14.01,2013-01-14 01:43:00,
2013-01-13 17:48:00,41.4,32.3,30.15,SE,135,0.0,2.0,70,0.00,,---,0.00,VWS V14.01,2013-01-14 01:48:00,
2013-01-13 17:53:00,41.0,32.3,30.15,ENE,68,1.6,1.6,71,0.00,,---,0.00,VWS V14.01,2013-01-14 01:53:00,
2013-01-13 17:58:00,40.8,32.5,30.15,SW,225,0.0,2.2,72,0.00,,---,0.00,VWS V14.01,2013-01-14 01:58:00,
2013-01-13 18:03:00,40.5,32.2,30.15,South,180,0.0,0.0,72,0.00,,---,0.00,VWS V14.01,2013-01-14 02:03:00,
2013-01-13 18:08:00,40.3,32.3,30.18,East,90,2.5,2.5,73,0.00,,---,0.00,VWS V14.01,2013-01-14 02:08:00,
2013-01-13 18:13:00,40.1,32.2,30.18,ENE,68,3.1,3.1,73,0.00,,---,0.00,VWS V14.01,2013-01-14 02:13:00,
2013-01-13 18:18:00,39.9,32.0,30.18,East,90,1.6,1.6,73,0.00,,---,0.00,VWS V14.01,2013-01-14 02:18:00,
2013-01-13 18:23:00,39.6,32.0,30.18,SE,135,0.0,0.0,74,0.00,,---,0.00,VWS V14.01,2013-01-14 02:23:00,
2013-01-13 18:28:00,39.4,31.5,30.18,ENE,68,1.3,2.2,73,0.00,,---,0.00,VWS V14.01,2013-01-14 02:28:00,
2013-01-13 18:33:00,39.2,31.6,30.18,ESE,112,2.5,3.6,74,0.00,,---,0.00,VWS V14.01,2013-01-14 02:33:00,
2013-01-13 18:38:00,39.2,31.6,30.15,ESE,112,0.0,0.0,74,0.48,,---,0.48,VWS V14.01,2013-01-14 02:38:00,
2013-01-13 18:43:00,38.8,31.6,30.15,ESE,112,0.0,2.9,75,0.65,,---,0.65,VWS V14.01,2013-01-14 02:43:00,
2013-01-13 18:48:00,38.5,31.3,30.15,East,90,0.0,2.5,75,0.65,,---,0.65,VWS V14.01,2013-01-14 02:48:00,
2013-01-13 18:53:00,38.3,31.1,30.18,ENE,68,2.0,2.2,75,0.65,,---,0.65,VWS V14.01,2013-01-14 02:53:00,
2013-01-13 18:58:00,38.1,31.2,30.18,SSE,158,0.0,0.0,76,0.65,,---,0.65,VWS V14.01,2013-01-14 02:58:00,
2013-01-13 19:03:00,37.8,30.9,30.18,SSE,158,2.0,2.5,76,0.65,,---,0.65,VWS V14.01,2013-01-14 03:03:00,
2013-01-13 19:08:00,37.6,30.7,30.18,ESE,112,2.0,2.9,76,0.65,,---,0.65,VWS V14.01,2013-01-14 03:08:00,
2013-01-13 19:13:00,37.4,30.5,30.18,ENE,68,0.9,0.9,76,0.65,,---,0.65,VWS V14.01,2013-01-14 03:13:00,
2013-01-13 19:18:00,37.2,30.7,30.18,SE,135,1.6,2.0,77,0.65,,---,0.65,VWS V14.01,2013-01-14 03:18:00,
2013-01-13 19:23:00,37.0,30.5,30.18,ESE,112,2.0,2.0,77,0.65,,---,0.65,VWS V14.01,2013-01-14 03:23:00,
2013-01-13 19:28:00,36.9,30.3,30.18,ENE,68,0.0,1.6,77,0.65,,---,0.65,VWS V14.01,2013-01-14 03:28:00,
2013-01-13 19:33:00,36.7,30.2,30.18,ESE,112,2.5,4.7,77,0.65,,---,0.65,VWS V14.01,2013-01-14 03:33:00,
2013-01-13 19:38:00,36.7,30.5,30.18,West,270,2.2,2.5,78,0.17,,---,0.65,VWS V14.01,2013-01-14 03:38:00,
2013-01-13 19:43:00,36.3,30.1,30.18,NE,45,0.0,0.0,78,0.00,,---,0.65,VWS V14.01,2013-01-14 03:43:00,
2013-01-13 19:48:00,36.1,30.0,30.18,NNW,338,0.0,0.0,78,0.00,,---,0.65,VWS V14.01,2013-01-14 03:48:00,
2013-01-13 19:53:00,35.8,29.6,30.18,ENE,68,0.0,1.3,78,0.00,,---,0.65,VWS V14.01,2013-01-14 03:53:00,
2013-01-13 19:58:00,35.8,29.6,30.18,NW,315,0.0,2.5,78,0.00,,---,0.65,VWS V14.01,2013-01-14 03:58:00,
2013-01-13 20:03:00,35.6,29.4,30.18,SE,135,1.3,2.0,78,0.00,,---,0.65,VWS V14.01,2013-01-14 04:03:00,
2013-01-13 20:08:00,35.4,29.2,30.18,SW,225,0.0,0.0,78,0.00,,---,0.65,VWS V14.01,2013-01-14 04:08:00,
2013-01-13 20:13:00,35.4,29.6,30.18,ENE,68,0.0,3.4,79,0.00,,---,0.65,VWS V14.01,2013-01-14 04:13:00,
2013-01-13 20:18:00,35.2,29.4,30.18,NNE,22,4.9,4.9,79,0.00,,---,0.65,VWS V14.01,2013-01-14 04:18:00,
2013-01-13 20:23:00,35.6,28.8,30.18,NNW,338,4.9,6.3,76,0.00,,---,0.65,VWS V14.01,2013-01-14 04:23:00,
2013-01-13 20:28:00,35.6,28.5,30.18,WNW,292,2.2,5.8,75,0.00,,---,0.65,VWS V14.01,2013-01-14 04:28:00,
2013-01-13 20:33:00,36.1,28.7,30.18,North,0,8.1,8.1,74,0.00,,---,0.65,VWS V14.01,2013-01-14 04:33:00,
2013-01-13 20:38:00,37.4,25.6,30.18,NNW,338,4.9,7.6,62,0.00,,---,0.65,VWS V14.01,2013-01-14 04:38:00,
2013-01-13 20:43:00,37.6,25.4,30.18,North,0,6.3,6.3,61,0.00,,---,0.65,VWS V14.01,2013-01-14 04:43:00,
2013-01-13 20:48:00,37.8,25.1,30.18,North,0,2.9,3.8,60,0.00,,---,0.65,VWS V14.01,2013-01-14 04:48:00,
2013-01-13 20:53:00,37.6,25.4,30.18,North,0,6.0,6.0,61,0.00,,---,0.65,VWS V14.01,2013-01-14 04:53:00,
2013-01-13 20:58:00,37.9,24.5,30.18,NNE,22,4.9,4.9,58,0.00,,---,0.65,VWS V14.01,2013-01-14 04:58:00,
2013-01-13 21:00:00,38.1,24.2,30.18,NNE,22,6.5,6.5,57,0.00,,---,0.65,VWS V14.01,2013-01-14 05:00:00,
2013-01-13 21:03:00,37.9,24.9,30.18,NNW,338,2.0,4.3,59,0.00,,---,0.65,VWS V14.01,2013-01-14 05:03:00,
2013-01-13 21:04:00,37.9,24.5,30.18,NNE,22,3.4,4.3,58,0.00,,---,0.65,VWS V14.01,2013-01-14 05:04:00,
2013-01-13 21:09:00,37.6,24.6,30.18,NNW,338,4.3,4.3,59,0.00,,---,0.65,VWS V14.01,2013-01-14 05:09:00,
2013-01-13 21:13:00,37.9,24.5,30.18,NNE,22,4.0,4.0,58,0.00,,---,0.65,VWS V14.01,2013-01-14 05:13:00,
2013-01-13 21:18:00,37.9,24.1,30.18,NNW,338,3.4,4.0,57,0.00,,---,0.65,VWS V14.01,2013-01-14 05:18:00,
2013-01-13 21:23:00,39.0,22.0,30.18,NNE,22,4.7,8.5,50,0.00,,---,0.65,VWS V14.01,2013-01-14 05:23:00,
2013-01-13 21:28:00,38.5,23.7,30.18,ENE,68,4.9,5.8,55,0.00,,---,0.65,VWS V14.01,2013-01-14 05:28:00,
2013-01-13 21:33:00,38.3,24.0,30.18,East,90,7.2,7.2,56,0.00,,---,0.65,VWS V14.01,2013-01-14 05:33:00,
2013-01-13 21:38:00,37.9,23.7,30.18,NW,315,3.6,3.6,56,0.00,,---,0.65,VWS V14.01,2013-01-14 05:38:00,
2013-01-13 21:43:00,38.1,23.8,30.18,NNW,338,1.3,2.5,56,0.00,,---,0.65,VWS V14.01,2013-01-14 05:43:00,
2013-01-13 21:48:00,38.5,22.4,30.18,NNW,338,10.3,10.3,52,0.00,,---,0.65,VWS V14.01,2013-01-14 05:48:00,
2013-01-13 21:53:00,38.8,22.7,30.18,NNE,22,4.0,15.4,52,0.00,,---,0.65,VWS V14.01,2013-01-14 05:53:00,
2013-01-13 21:58:00,38.7,23.5,30.18,NW,315,2.2,3.1,54,0.00,,---,0.65,VWS V14.01,2013-01-14 05:58:00,
2013-01-13 22:03:00,39.4,22.3,30.18,NNE,22,3.6,5.6,50,0.00,,---,0.65,VWS V14.01,2013-01-14 06:03:00,
2013-01-13 22:08:00,39.7,22.2,30.18,NNE,22,7.8,7.8,49,0.00,,---,0.65,VWS V14.01,2013-01-14 06:08:00,
2013-01-13 22:13:00,39.4,22.3,30.18,NE,45,2.7,5.4,50,0.00,,---,0.65,VWS V14.01,2013-01-14 06:13:00,
2013-01-13 22:18:00,39.4,21.8,30.18,NE,45,6.0,8.7,49,0.00,,---,0.65,VWS V14.01,2013-01-14 06:18:00,
2013-01-13 22:23:00,39.4,21.8,30.18,NNE,22,1.6,5.6,49,0.00,,---,0.65,VWS V14.01,2013-01-14 06:23:00,
2013-01-13 22:28:00,39.4,21.8,30.18,SSE,158,0.0,1.6,49,0.00,,---,0.65,VWS V14.01,2013-01-14 06:28:00,
2013-01-13 22:33:00,38.1,22.5,30.18,WNW,292,2.0,2.0,53,0.00,,---,0.65,VWS V14.01,2013-01-14 06:33:00,
2013-01-13 22:38:00,37.6,22.5,30.18,NNW,338,3.4,3.6,54,0.00,,---,0.65,VWS V14.01,2013-01-14 06:38:00,
2013-01-13 22:43:00,37.4,22.3,30.18,WNW,292,1.6,2.0,54,0.00,,---,0.65,VWS V14.01,2013-01-14 06:43:00,
2013-01-13 22:48:00,37.4,22.3,30.18,NNW,338,2.5,3.4,54,0.00,,---,0.65,VWS V14.01,2013-01-14 06:48:00,
2013-01-13 22:53:00,37.4,22.3,30.18,NNE,22,2.7,2.7,54,0.00,,---,0.65,VWS V14.01,2013-01-14 06:53:00,
2013-01-13 22:58:00,37.4,22.3,30.18,NNE,22,6.0,6.0,54,0.00,,---,0.65,VWS V14.01,2013-01-14 06:58:00,
2013-01-13 23:03:00,37.4,22.3,30.18,North,0,2.7,4.9,54,0.00,,---,0.65,VWS V14.01,2013-01-14 07:03:00,
2013-01-13 23:08:00,37.4,22.3,30.21,NNW,338,6.0,8.5,54,0.00,,---,0.65,VWS V14.01,2013-01-14 07:08:00,
2013-01-13 23:13:00,37.4,22.3,30.21,ENE,68,2.7,2.7,54,0.00,,---,0.65,VWS V14.01,2013-01-14 07:13:00,
2013-01-13 23:18:00,37.4,22.3,30.21,NNE,22,2.7,2.9,54,0.00,,---,0.65,VWS V14.01,2013-01-14 07:18:00,
2013-01-13 23:24:00,37.4,22.3,30.21,NNE,22,2.5,2.5,54,0.00,,---,0.65,VWS V14.01,2013-01-14 07:24:00,
2013-01-13 23:29:00,37.4,22.3,30.21,NE,45,2.7,4.7,54,0.00,,---,0.65,VWS V14.01,2013-01-14 07:29:00,
2013-01-13 23:34:00,37.4,22.3,30.21,NNE,22,3.8,7.8,54,0.00,,---,0.65,VWS V14.01,2013-01-14 07:34:00,
2013-01-13 23:39:00,37.4,22.3,30.21,NNW,338,6.0,6.0,54,0.00,,---,0.65,VWS V14.01,2013-01-14 07:39:00,
2013-01-13 23:44:00,37.4,22.3,30.21,North,0,4.9,5.8,54,0.00,,---,0.65,VWS V14.01,2013-01-14 07:44:00,
2013-01-13 23:49:00,37.4,22.3,30.21,North,0,5.4,6.5,54,0.00,,---,0.65,VWS V14.01,2013-01-14 07:49:00,
2013-01-13 23:54:00,37.4,22.3,30.21,NNE,22,3.4,4.5,54,0.00,,---,0.65,VWS V14.01,2013-01-14 07:54:00,
2013-01-13 23:59:00,37.4,22.3,30.21,NNE,22,4.0,6.5,54,0.00,,---,0.65,VWS V14.01,2013-01-14 07:59:00,